Weather History for Bennettsville, SC

Change the Weather History Date:

Wednesday, November 13, 2013

  Actual Average (KFLO) Record (KFLO)
Temperature  
Mean Temperature 39 °F 56 °F  
Max Temperature 48 °F 68 °F 84 °F (1955)
Min Temperature 30 °F 44 °F 25 °F (2013)
Degree Days  
Heating Degree Days 26 9  
Month to date heating degree days 103  
Since 1 July heating degree days 220  
Cooling Degree Days 0 1  
Month to date cooling degree days 13  
Year to date cooling degree days 2055  
Moisture  
Dew Point 22 °F    
Average Humidity 57    
Maximum Humidity 87    
Minimum Humidity 32    
Precipitation  
Precipitation 0.00 in 0.09 in 0.91 in (1997)
Month to date precipitation 1.13  
Year to date precipitation 38.36  
Sea Level Pressure  
Sea Level Pressure 30.49 in    
Wind  
Wind Speed 8 mph (NNW)    
Max Wind Speed 14 mph    
Max Gust Speed 21 mph    
Visibility 10 miles    
Events      
T = Trace of Precipitation, MM = Missing Value Source: NWS Daily Summary

Daily Weather History Graph

Daily Weather History Graph

Search for Another Location

Airport:

Trip Planner

Search our weather history database for the weather conditions in past years. The results will help you decide how hot, cold, wet, or windy it might be!

Date:

Astronomy

Nov. 13, 2013 Rise Set
Actual Time 6:50 AM EST 5:15 PM EST
Civil Twilight 6:24 AM EST 5:41 PM EST
Nautical Twilight 5:53 AM EST 6:12 PM EST
Astronomical Twilight 5:24 AM EST 6:42 PM EST
Moon 2:53 PM EST (11/13) 2:51 AM EST (11/13)
Length of Visible Light 11h 17m
Length of Day
10h 24m
Waxing Gibbous, 84% of the Moon is Illuminated
Nov 13
Waxing Gibbous
Nov 17
Full
Nov 25
Last Quarter
Dec 2
New
Dec 9
First Quarter

Hourly Weather History & Observations

Time (EST) Temp. Windchill Dew Point Humidity Pressure Visibility Wind Dir Wind Speed Gust Speed Precip Events Conditions
12:15 AM 37.4 °F 30.8 °F 32.0 °F 81% 30.41 in 10.0 mi NNW 9.2 mph - N/A   Scattered Clouds
12:35 AM 35.6 °F 28.0 °F 32.0 °F 87% 30.42 in 10.0 mi NNW 10.4 mph - N/A   Clear
12:55 AM 35.6 °F 28.6 °F 30.2 °F 81% 30.42 in 10.0 mi NNW 9.2 mph 16.1 mph N/A   Clear
1:15 AM 35.6 °F 27.5 °F 30.2 °F 81% 30.43 in 10.0 mi NNW 11.5 mph 17.3 mph N/A   Clear
1:35 AM 35.6 °F 28.0 °F 26.6 °F 70% 30.43 in 10.0 mi NNW 10.4 mph 18.4 mph N/A   Clear
1:55 AM 35.6 °F 27.5 °F 24.8 °F 65% 30.43 in 10.0 mi NNW 11.5 mph - N/A   Clear
2:15 AM 33.8 °F 25.8 °F 23.0 °F 65% 30.43 in 10.0 mi NNW 10.4 mph - N/A   Clear
2:35 AM 33.8 °F 25.3 °F 21.2 °F 60% 30.43 in 10.0 mi North 11.5 mph - N/A   Clear
2:55 AM 33.8 °F 26.4 °F 21.2 °F 60% 30.44 in 10.0 mi North 9.2 mph - N/A   Clear
3:15 AM 33.8 °F 27.0 °F 21.2 °F 60% 30.44 in 10.0 mi NNW 8.1 mph - N/A   Clear
3:35 AM 32.0 °F 24.8 °F 21.2 °F 64% 30.45 in 10.0 mi NNW 8.1 mph - N/A   Clear
3:55 AM 32.0 °F 26.4 °F 21.2 °F 64% 30.45 in 10.0 mi NNW 5.8 mph - N/A   Clear
4:15 AM 32.0 °F 24.8 °F 21.2 °F 64% 30.46 in 10.0 mi NW 8.1 mph - N/A   Clear
4:35 AM 32.0 °F 25.6 °F 21.2 °F 64% 30.46 in 10.0 mi NNW 6.9 mph - N/A   Clear
4:55 AM 32.0 °F 24.8 °F 21.2 °F 64% 30.47 in 10.0 mi NNW 8.1 mph - N/A   Clear
5:15 AM 32.0 °F 24.8 °F 21.2 °F 64% 30.47 in 10.0 mi NNW 8.1 mph - N/A   Clear
5:35 AM 32.0 °F 24.2 °F 21.2 °F 64% 30.47 in 10.0 mi NNW 9.2 mph - N/A   Clear
5:55 AM 32.0 °F 25.6 °F 21.2 °F 64% 30.48 in 10.0 mi NNW 6.9 mph - N/A   Clear
6:15 AM 32.0 °F 26.4 °F 21.2 °F 64% 30.48 in 10.0 mi NNW 5.8 mph - N/A   Clear
6:35 AM 32.0 °F 24.8 °F 21.2 °F 64% 30.49 in 10.0 mi NNW 8.1 mph - N/A   Clear
6:55 AM 32.0 °F 24.8 °F 21.2 °F 64% 30.49 in 10.0 mi NNW 8.1 mph - N/A   Clear
7:15 AM 32.0 °F 25.6 °F 21.2 °F 64% 30.50 in 10.0 mi NNW 6.9 mph - N/A   Clear
7:35 AM 32.0 °F 25.6 °F 21.2 °F 64% 30.51 in 10.0 mi NNW 6.9 mph - N/A   Clear
7:55 AM 33.8 °F 27.7 °F 21.2 °F 60% 30.51 in 10.0 mi NNW 6.9 mph - N/A   Clear
8:15 AM 35.6 °F 28.6 °F 21.2 °F 56% 30.53 in 10.0 mi NNW 9.2 mph - N/A   Clear
8:35 AM 35.6 °F 29.2 °F 21.2 °F 56% 30.54 in 10.0 mi NNW 8.1 mph - N/A   Clear
8:55 AM 37.4 °F 31.4 °F 21.2 °F 52% 30.55 in 10.0 mi NNW 8.1 mph 16.1 mph N/A   Clear
9:15 AM 37.4 °F 29.3 °F 21.2 °F 52% 30.54 in 10.0 mi North 12.7 mph 18.4 mph N/A   Clear
9:35 AM 39.2 °F 33.0 °F 21.2 °F 49% 30.54 in 10.0 mi North 9.2 mph - N/A   Clear
9:55 AM 41.0 °F 33.9 °F 21.2 °F 45% 30.54 in 10.0 mi North 12.7 mph 20.7 mph N/A   Clear
10:15 AM 41.0 °F 33.5 °F 21.2 °F 45% 30.54 in 10.0 mi North 13.8 mph 17.3 mph N/A   Clear
10:35 AM 42.8 °F 36.2 °F 19.4 °F 39% 30.54 in 10.0 mi NNE 12.7 mph 16.1 mph N/A   Clear
10:55 AM 42.8 °F 36.6 °F 19.4 °F 39% 30.54 in 10.0 mi North 11.5 mph 16.1 mph N/A   Clear
11:15 AM 44.6 °F 39.2 °F 19.4 °F 37% 30.54 in 10.0 mi North 10.4 mph - N/A   Clear
11:35 AM 44.6 °F 38.4 °F 19.4 °F 37% 30.53 in 10.0 mi NW 12.7 mph 17.3 mph N/A   Clear
11:55 AM 46.4 °F 41.1 °F 19.4 °F 34% 30.53 in 10.0 mi NNW 11.5 mph 17.3 mph N/A   Clear
12:15 PM 44.6 °F 40.7 °F 17.6 °F 34% 30.51 in 10.0 mi NE 6.9 mph - N/A   Clear
12:35 PM 46.4 °F 42.4 °F 19.4 °F 34% 30.50 in 10.0 mi NNW 8.1 mph 16.1 mph N/A   Clear
12:55 PM 46.4 °F 41.5 °F 17.6 °F 32% 30.49 in 10.0 mi NNW 10.4 mph - N/A   Clear
1:15 PM 46.4 °F 41.9 °F 17.6 °F 32% 30.49 in 10.0 mi NNW 9.2 mph - N/A   Clear
1:35 PM 46.4 °F 44.3 °F 17.6 °F 32% 30.48 in 10.0 mi NW 4.6 mph 16.1 mph N/A   Clear
1:55 PM 46.4 °F 42.4 °F 17.6 °F 32% 30.47 in 10.0 mi North 8.1 mph 16.1 mph N/A   Clear
2:15 PM 48.2 °F - 19.4 °F 32% 30.47 in 10.0 mi NW 10.4 mph - N/A   Clear
2:35 PM 48.2 °F - 19.4 °F 32% 30.47 in 10.0 mi NNW 5.8 mph - N/A   Clear
2:55 PM 48.2 °F - 19.4 °F 32% 30.47 in 7.0 mi WNW 6.9 mph 18.4 mph N/A   Clear
3:15 PM 48.2 °F - 19.4 °F 32% 30.47 in 7.0 mi NNW 6.9 mph - N/A   Clear
3:35 PM 48.2 °F - 19.4 °F 32% 30.47 in 10.0 mi WNW 8.1 mph - N/A   Clear
3:55 PM 48.2 °F - 19.4 °F 32% 30.47 in 10.0 mi NW 9.2 mph - N/A   Clear
4:15 PM 46.4 °F 41.9 °F 19.4 °F 34% 30.47 in 10.0 mi NW 9.2 mph - N/A   Clear
4:35 PM 46.4 °F 42.4 °F 19.4 °F 34% 30.47 in 7.0 mi NW 8.1 mph - N/A   Clear
4:55 PM 44.6 °F 40.2 °F 19.4 °F 37% 30.47 in 10.0 mi NW 8.1 mph - N/A   Clear
5:15 PM 42.8 °F 39.3 °F 19.4 °F 39% 30.48 in 7.0 mi NW 5.8 mph - N/A   Clear
5:35 PM 41.0 °F 38.0 °F 19.4 °F 42% 30.49 in 10.0 mi NW 4.6 mph - N/A   Clear
5:55 PM 41.0 °F 38.0 °F 21.2 °F 45% 30.49 in 10.0 mi NW 4.6 mph - N/A   Clear
6:15 PM 39.2 °F 37.0 °F 23.0 °F 52% 30.50 in 7.0 mi NW 3.5 mph - N/A   Clear
6:35 PM 37.4 °F 32.8 °F 21.2 °F 52% 30.50 in 10.0 mi NNW 5.8 mph - N/A   Clear
6:55 PM 35.6 °F - 24.8 °F 65% 30.51 in 10.0 mi Calm Calm - N/A   Clear
7:15 PM 35.6 °F - 26.6 °F 70% 30.51 in 10.0 mi Calm Calm - N/A   Clear
7:35 PM 35.6 °F - 23.0 °F 60% 30.51 in 10.0 mi Calm Calm - N/A   Clear
7:55 PM 32.0 °F - 24.8 °F 75% 30.51 in 10.0 mi Calm Calm - N/A   Clear
8:15 PM 32.0 °F - 26.6 °F 80% 30.51 in 10.0 mi Calm Calm - N/A   Clear
8:35 PM 32.0 °F - 24.8 °F 75% 30.51 in 10.0 mi Calm Calm - N/A   Clear
8:55 PM 32.0 °F - 26.6 °F 80% 30.51 in 10.0 mi Calm Calm - N/A   Clear
9:15 PM 32.0 °F - 24.8 °F 75% 30.51 in 10.0 mi Calm Calm - N/A   Clear
9:35 PM 32.0 °F - 26.6 °F 80% 30.51 in 10.0 mi Calm Calm - N/A   Clear
9:55 PM 32.0 °F - 26.6 °F 80% 30.51 in 10.0 mi Calm Calm - N/A   Clear
10:15 PM 30.2 °F 26.7 °F 26.6 °F 86% 30.51 in 10.0 mi NW 3.5 mph - N/A   Clear
10:35 PM 32.0 °F - 26.6 °F 80% 30.51 in 10.0 mi Calm Calm - N/A   Clear
10:55 PM 30.2 °F - 26.6 °F 86% 30.50 in 10.0 mi Calm Calm - N/A   Clear
11:15 PM 30.2 °F - 26.6 °F 86% 30.50 in 10.0 mi Calm Calm - N/A   Clear
11:35 PM 30.2 °F - 26.6 °F 86% 30.49 in 10.0 mi Calm Calm - N/A   Clear
11:55 PM 30.2 °F - 26.6 °F 86% 30.49 in 10.0 mi Calm Calm - N/A   Clear